OMSJ/SHJ METAR and TAF weather

Enter ICAO airport designator
Station Type Date Time Source
OMSJ METAR 2019/08/22 21:00 UTC NOAA

OMSJ 222100Z 09004KT CAVOK 34/21 Q1001 NOSIG


Station Type Date Time Source
OMSJ Decoded METAR 2019/08/22 21:00 UTC NOAA

Station name not available
Aug 22, 2019 - 05:00 PM EDT / 2019.08.22 2100 UTC
Wind: from the E (090 degrees) at 5 MPH (4 KT):0
Visibility: greater than 7 mile(s):0
Temperature: 93 F (34 C)
Heat index: 98.4 F (36.9 C):1
Dew Point: 69 F (21 C)
Relative Humidity: 46%
Pressure (altimeter): 29.56 in. Hg (1001 hPa)
ob: OMSJ 222100Z 09004KT CAVOK 34/21 Q1001 NOSIG
cycle: 21

Station Type Date Time Source
OMSJ TAF 2019/08/22 18:02 UTC NOAA

TAF OMSJ 221655Z 2218/2400 09007KT 8000 NSC
BECMG 2304/2306 17010KT PROB30 2304/2307 4000 DU
BECMG 2309/2311 35013KT PROB30
TEMPO 2310/2315 12020G30KT 3000 BLDU FEW040CB
BECMG 2315/2317 10007KT

Example: see airport list